KFCS/FCS METAR and TAF weather

Enter ICAO airport designator
Station Type Date Time Source
KFCS METAR 2019/10/14 05:58 UTC NOAA

KFCS 140558Z AUTO 34010KT 10SM CLR 06/M14 A3000 RMK AO2 SLP140 T00601141 10164 20038 58008 $


Station Type Date Time Source
KFCS Decoded METAR 2019/10/14 05:58 UTC NOAA

Fort Carson, CO, United States (KFCS) 38-42N 104-46W 1789M
Oct 14, 2019 - 01:58 AM EDT / 2019.10.14 0558 UTC
Wind: from the NNW (340 degrees) at 12 MPH (10 KT):0
Visibility: 10 mile(s):0
Sky conditions: clear
Temperature: 42.8 F (6.0 C)
Dew Point: 6.6 F (-14.1 C)
Relative Humidity: 22%
Pressure (altimeter): 30 in. Hg (1015 hPa)
Pressure tendency: 0.02 inches (0.8 hPa) lower than three hours ago
ob: KFCS 140558Z AUTO 34010KT 10SM CLR 06/M14 A3000 RMK AO2 SLP140 T00601141 10164 20038 58008
cycle: 6

Station Type Date Time Source
KFCS TAF 2019/10/14 05:03 UTC NOAA

TAF TAF KFCS 140500Z 1405/1511 VRB06KT 9999 SKC QNH3000INS
BECMG 1416/1417 26012G18KT 9999 FEW200 520007 QNH2994INS
TEMPO 1417/1420 25015G20KT 520009
BECMG 1501/1502 34009KT 9999 SKC QNH2997INS TX21/1420Z TN03/1411Z

Example: see airport list